sensor_id;sensor_type;location;lat;lon;timestamp;P1;durP1;ratioP1;P2;durP2;ratioP2
2031;SDS011;27625;50.422;7.944;2022-11-20T00:02:38;25.37;;;17.13;;
2031;SDS011;27625;50.422;7.944;2022-11-20T00:05:05;23.77;;;16.90;;
2031;SDS011;27625;50.422;7.944;2022-11-20T00:07:33;21.20;;;13.80;;
2031;SDS011;27625;50.422;7.944;2022-11-20T00:10:00;22.80;;;16.03;;
2031;SDS011;27625;50.422;7.944;2022-11-20T00:12:26;23.90;;;17.17;;
2031;SDS011;27625;50.422;7.944;2022-11-20T00:14:53;24.13;;;17.50;;
2031;SDS011;27625;50.422;7.944;2022-11-20T00:17:20;23.50;;;16.57;;
2031;SDS011;27625;50.422;7.944;2022-11-20T00:19:48;24.23;;;15.33;;
2031;SDS011;27625;50.422;7.944;2022-11-20T00:22:15;20.73;;;14.30;;
2031;SDS011;27625;50.422;7.944;2022-11-20T00:24:42;22.43;;;14.37;;
2031;SDS011;27625;50.422;7.944;2022-11-20T00:27:09;25.80;;;15.60;;
2031;SDS011;27625;50.422;7.944;2022-11-20T00:29:35;20.30;;;14.40;;
2031;SDS011;27625;50.422;7.944;2022-11-20T00:32:02;20.40;;;13.97;;
2031;SDS011;27625;50.422;7.944;2022-11-20T00:34:29;22.50;;;14.87;;
2031;SDS011;27625;50.422;7.944;2022-11-20T00:36:57;22.70;;;14.80;;
2031;SDS011;27625;50.422;7.944;2022-11-20T00:39:24;23.60;;;15.07;;
2031;SDS011;27625;50.422;7.944;2022-11-20T00:41:51;19.20;;;14.40;;
2031;SDS011;27625;50.422;7.944;2022-11-20T00:44:18;22.37;;;14.90;;
2031;SDS011;27625;50.422;7.944;2022-11-20T00:46:45;20.80;;;14.43;;
2031;SDS011;27625;50.422;7.944;2022-11-20T00:49:12;23.30;;;13.63;;
2031;SDS011;27625;50.422;7.944;2022-11-20T00:51:39;23.60;;;14.70;;
2031;SDS011;27625;50.422;7.944;2022-11-20T00:54:07;27.40;;;15.03;;
2031;SDS011;27625;50.422;7.944;2022-11-20T00:56:34;20.07;;;13.00;;
2031;SDS011;27625;50.422;7.944;2022-11-20T00:59:00;24.53;;;15.13;;
2031;SDS011;27625;50.422;7.944;2022-11-20T01:01:27;21.97;;;15.37;;
2031;SDS011;27625;50.422;7.944;2022-11-20T01:03:56;22.73;;;14.50;;
2031;SDS011;27625;50.422;7.944;2022-11-20T01:06:24;21.33;;;14.90;;
2031;SDS011;27625;50.422;7.944;2022-11-20T01:08:52;20.30;;;14.40;;
2031;SDS011;27625;50.422;7.944;2022-11-20T01:11:22;21.20;;;14.47;;
2031;SDS011;27625;50.422;7.944;2022-11-20T01:13:50;20.17;;;14.10;;
2031;SDS011;27625;50.422;7.944;2022-11-20T01:16:18;22.20;;;13.20;;
2031;SDS011;27625;50.422;7.944;2022-11-20T01:18:46;19.50;;;14.30;;
2031;SDS011;27625;50.422;7.944;2022-11-20T01:21:15;24.70;;;15.10;;
2031;SDS011;27625;50.422;7.944;2022-11-20T01:23:43;21.17;;;13.93;;
2031;SDS011;27625;50.422;7.944;2022-11-20T01:26:10;24.03;;;14.10;;
2031;SDS011;27625;50.422;7.944;2022-11-20T01:28:40;24.63;;;15.07;;
2031;SDS011;27625;50.422;7.944;2022-11-20T01:31:11;19.70;;;13.47;;
2031;SDS011;27625;50.422;7.944;2022-11-20T01:33:39;21.97;;;14.17;;
2031;SDS011;27625;50.422;7.944;2022-11-20T01:36:06;20.67;;;14.60;;
2031;SDS011;27625;50.422;7.944;2022-11-20T01:38:34;19.73;;;13.50;;
2031;SDS011;27625;50.422;7.944;2022-11-20T01:41:01;19.63;;;13.50;;
2031;SDS011;27625;50.422;7.944;2022-11-20T01:43:28;19.63;;;14.17;;
2031;SDS011;27625;50.422;7.944;2022-11-20T01:46:02;21.73;;;13.20;;
2031;SDS011;27625;50.422;7.944;2022-11-20T01:48:33;22.97;;;14.80;;
2031;SDS011;27625;50.422;7.944;2022-11-20T01:51:02;22.60;;;14.17;;
2031;SDS011;27625;50.422;7.944;2022-11-20T01:53:32;27.37;;;15.97;;
2031;SDS011;27625;50.422;7.944;2022-11-20T01:56:01;23.60;;;15.30;;
2031;SDS011;27625;50.422;7.944;2022-11-20T01:58:30;24.73;;;14.57;;
2031;SDS011;27625;50.422;7.944;2022-11-20T02:00:59;23.43;;;15.23;;
2031;SDS011;27625;50.422;7.944;2022-11-20T02:03:27;20.53;;;15.03;;
2031;SDS011;27625;50.422;7.944;2022-11-20T02:05:55;21.10;;;14.77;;
2031;SDS011;27625;50.422;7.944;2022-11-20T02:08:25;25.77;;;15.10;;
2031;SDS011;27625;50.422;7.944;2022-11-20T02:10:52;23.70;;;14.80;;
2031;SDS011;27625;50.422;7.944;2022-11-20T02:13:19;24.60;;;16.30;;
2031;SDS011;27625;50.422;7.944;2022-11-20T02:16:03;24.97;;;15.13;;
2031;SDS011;27625;50.422;7.944;2022-11-20T02:18:32;22.00;;;14.50;;
2031;SDS011;27625;50.422;7.944;2022-11-20T02:21:01;22.47;;;14.30;;
2031;SDS011;27625;50.422;7.944;2022-11-20T02:23:31;23.63;;;14.30;;
2031;SDS011;27625;50.422;7.944;2022-11-20T02:26:02;21.93;;;13.73;;
2031;SDS011;27625;50.422;7.944;2022-11-20T02:28:30;23.57;;;13.83;;
2031;SDS011;27625;50.422;7.944;2022-11-20T02:30:57;21.30;;;14.13;;
2031;SDS011;27625;50.422;7.944;2022-11-20T02:33:23;21.23;;;13.87;;
2031;SDS011;27625;50.422;7.944;2022-11-20T02:35:50;25.37;;;15.17;;
2031;SDS011;27625;50.422;7.944;2022-11-20T02:38:17;21.23;;;14.60;;
2031;SDS011;27625;50.422;7.944;2022-11-20T02:40:44;22.63;;;15.20;;
2031;SDS011;27625;50.422;7.944;2022-11-20T02:43:12;25.67;;;15.87;;
2031;SDS011;27625;50.422;7.944;2022-11-20T02:45:39;24.70;;;15.87;;
2031;SDS011;27625;50.422;7.944;2022-11-20T02:48:06;22.30;;;14.53;;
2031;SDS011;27625;50.422;7.944;2022-11-20T02:50:35;22.00;;;14.43;;
2031;SDS011;27625;50.422;7.944;2022-11-20T02:53:03;23.20;;;14.10;;
2031;SDS011;27625;50.422;7.944;2022-11-20T02:55:30;23.47;;;15.23;;
2031;SDS011;27625;50.422;7.944;2022-11-20T02:57:57;22.90;;;15.20;;
2031;SDS011;27625;50.422;7.944;2022-11-20T03:03:00;20.23;;;15.10;;
2031;SDS011;27625;50.422;7.944;2022-11-20T03:05:27;28.97;;;15.20;;
2031;SDS011;27625;50.422;7.944;2022-11-20T03:07:54;21.13;;;15.00;;
2031;SDS011;27625;50.422;7.944;2022-11-20T03:10:20;24.80;;;16.13;;
2031;SDS011;27625;50.422;7.944;2022-11-20T03:12:47;25.30;;;15.27;;
2031;SDS011;27625;50.422;7.944;2022-11-20T03:15:14;22.27;;;16.00;;
2031;SDS011;27625;50.422;7.944;2022-11-20T03:17:41;27.23;;;15.50;;
2031;SDS011;27625;50.422;7.944;2022-11-20T03:20:10;23.77;;;15.73;;
2031;SDS011;27625;50.422;7.944;2022-11-20T03:22:37;23.77;;;15.17;;
2031;SDS011;27625;50.422;7.944;2022-11-20T03:25:04;24.60;;;14.87;;
2031;SDS011;27625;50.422;7.944;2022-11-20T03:27:32;22.77;;;15.70;;
2031;SDS011;27625;50.422;7.944;2022-11-20T03:29:59;24.37;;;15.67;;
2031;SDS011;27625;50.422;7.944;2022-11-20T03:32:26;26.13;;;15.47;;
2031;SDS011;27625;50.422;7.944;2022-11-20T03:34:53;23.00;;;14.70;;
2031;SDS011;27625;50.422;7.944;2022-11-20T03:37:21;22.77;;;14.57;;
2031;SDS011;27625;50.422;7.944;2022-11-20T03:39:47;22.67;;;15.83;;
2031;SDS011;27625;50.422;7.944;2022-11-20T03:42:14;25.87;;;15.33;;
2031;SDS011;27625;50.422;7.944;2022-11-20T03:44:55;25.70;;;15.87;;
2031;SDS011;27625;50.422;7.944;2022-11-20T03:47:22;29.43;;;16.07;;
2031;SDS011;27625;50.422;7.944;2022-11-20T03:49:48;22.67;;;15.43;;
2031;SDS011;27625;50.422;7.944;2022-11-20T03:52:15;23.27;;;15.70;;
2031;SDS011;27625;50.422;7.944;2022-11-20T03:54:43;22.00;;;14.00;;
2031;SDS011;27625;50.422;7.944;2022-11-20T03:57:10;26.23;;;16.67;;
2031;SDS011;27625;50.422;7.944;2022-11-20T03:59:37;23.93;;;15.77;;
2031;SDS011;27625;50.422;7.944;2022-11-20T04:02:03;24.90;;;15.93;;
2031;SDS011;27625;50.422;7.944;2022-11-20T04:04:30;27.50;;;16.60;;
2031;SDS011;27625;50.422;7.944;2022-11-20T04:06:56;24.30;;;16.13;;
2031;SDS011;27625;50.422;7.944;2022-11-20T04:09:23;24.03;;;16.20;;
2031;SDS011;27625;50.422;7.944;2022-11-20T04:11:51;21.17;;;15.03;;
2031;SDS011;27625;50.422;7.944;2022-11-20T04:14:18;27.80;;;17.10;;
2031;SDS011;27625;50.422;7.944;2022-11-20T04:16:44;31.03;;;18.33;;
2031;SDS011;27625;50.422;7.944;2022-11-20T04:19:12;35.00;;;18.77;;
2031;SDS011;27625;50.422;7.944;2022-11-20T04:21:40;28.73;;;17.00;;
2031;SDS011;27625;50.422;7.944;2022-11-20T04:24:07;27.67;;;17.43;;
2031;SDS011;27625;50.422;7.944;2022-11-20T04:26:35;27.27;;;17.23;;
2031;SDS011;27625;50.422;7.944;2022-11-20T04:29:04;25.60;;;17.10;;
2031;SDS011;27625;50.422;7.944;2022-11-20T04:31:31;26.70;;;17.97;;
2031;SDS011;27625;50.422;7.944;2022-11-20T04:33:59;27.77;;;17.47;;
2031;SDS011;27625;50.422;7.944;2022-11-20T04:36:26;28.93;;;17.70;;
2031;SDS011;27625;50.422;7.944;2022-11-20T04:38:54;31.20;;;19.03;;
2031;SDS011;27625;50.422;7.944;2022-11-20T04:41:22;32.50;;;18.10;;
2031;SDS011;27625;50.422;7.944;2022-11-20T04:43:50;27.33;;;18.10;;
2031;SDS011;27625;50.422;7.944;2022-11-20T04:46:19;32.13;;;19.20;;
2031;SDS011;27625;50.422;7.944;2022-11-20T04:48:46;33.70;;;19.30;;
2031;SDS011;27625;50.422;7.944;2022-11-20T04:51:13;31.30;;;18.17;;
2031;SDS011;27625;50.422;7.944;2022-11-20T04:53:40;37.63;;;19.63;;
2031;SDS011;27625;50.422;7.944;2022-11-20T04:56:07;30.60;;;17.53;;
2031;SDS011;27625;50.422;7.944;2022-11-20T04:58:35;32.33;;;20.40;;
2031;SDS011;27625;50.422;7.944;2022-11-20T05:01:02;33.23;;;18.90;;
2031;SDS011;27625;50.422;7.944;2022-11-20T05:03:31;33.20;;;19.77;;
2031;SDS011;27625;50.422;7.944;2022-11-20T05:05:59;32.47;;;19.00;;
2031;SDS011;27625;50.422;7.944;2022-11-20T05:08:26;31.87;;;18.90;;
2031;SDS011;27625;50.422;7.944;2022-11-20T05:10:52;36.60;;;18.70;;
2031;SDS011;27625;50.422;7.944;2022-11-20T05:13:19;29.43;;;18.33;;
2031;SDS011;27625;50.422;7.944;2022-11-20T05:15:46;32.63;;;20.20;;
2031;SDS011;27625;50.422;7.944;2022-11-20T05:18:12;31.17;;;18.87;;
2031;SDS011;27625;50.422;7.944;2022-11-20T05:20:40;33.57;;;19.17;;
2031;SDS011;27625;50.422;7.944;2022-11-20T05:23:07;33.03;;;20.27;;
2031;SDS011;27625;50.422;7.944;2022-11-20T05:25:34;33.60;;;19.17;;
2031;SDS011;27625;50.422;7.944;2022-11-20T05:28:00;36.47;;;19.93;;
2031;SDS011;27625;50.422;7.944;2022-11-20T05:30:27;36.30;;;21.10;;
2031;SDS011;27625;50.422;7.944;2022-11-20T05:32:53;33.90;;;19.13;;
2031;SDS011;27625;50.422;7.944;2022-11-20T05:35:20;42.93;;;20.70;;
2031;SDS011;27625;50.422;7.944;2022-11-20T05:37:48;37.63;;;19.77;;
2031;SDS011;27625;50.422;7.944;2022-11-20T05:40:15;39.90;;;20.83;;
2031;SDS011;27625;50.422;7.944;2022-11-20T05:42:42;37.60;;;21.03;;
2031;SDS011;27625;50.422;7.944;2022-11-20T05:45:09;37.57;;;21.63;;
2031;SDS011;27625;50.422;7.944;2022-11-20T05:47:36;40.00;;;22.27;;
2031;SDS011;27625;50.422;7.944;2022-11-20T05:50:03;37.27;;;21.80;;
2031;SDS011;27625;50.422;7.944;2022-11-20T05:52:30;38.33;;;20.90;;
2031;SDS011;27625;50.422;7.944;2022-11-20T05:54:58;43.30;;;22.10;;
2031;SDS011;27625;50.422;7.944;2022-11-20T05:57:25;37.20;;;20.80;;
2031;SDS011;27625;50.422;7.944;2022-11-20T05:59:52;45.03;;;21.60;;
2031;SDS011;27625;50.422;7.944;2022-11-20T06:02:18;47.20;;;23.20;;
2031;SDS011;27625;50.422;7.944;2022-11-20T06:04:45;45.03;;;21.80;;
2031;SDS011;27625;50.422;7.944;2022-11-20T06:07:11;36.60;;;20.50;;
2031;SDS011;27625;50.422;7.944;2022-11-20T06:09:38;41.57;;;20.83;;
2031;SDS011;27625;50.422;7.944;2022-11-20T06:12:06;42.17;;;21.73;;
2031;SDS011;27625;50.422;7.944;2022-11-20T06:14:33;44.30;;;21.90;;
2031;SDS011;27625;50.422;7.944;2022-11-20T06:17:00;45.83;;;23.53;;
2031;SDS011;27625;50.422;7.944;2022-11-20T06:19:27;42.37;;;22.90;;
2031;SDS011;27625;50.422;7.944;2022-11-20T06:21:53;36.47;;;22.00;;
2031;SDS011;27625;50.422;7.944;2022-11-20T06:24:20;43.40;;;23.17;;
2031;SDS011;27625;50.422;7.944;2022-11-20T06:26:46;43.67;;;22.40;;
2031;SDS011;27625;50.422;7.944;2022-11-20T06:29:14;38.90;;;23.83;;
2031;SDS011;27625;50.422;7.944;2022-11-20T06:31:41;39.57;;;23.13;;
2031;SDS011;27625;50.422;7.944;2022-11-20T06:34:08;48.97;;;30.77;;
2031;SDS011;27625;50.422;7.944;2022-11-20T06:36:34;41.03;;;22.03;;
2031;SDS011;27625;50.422;7.944;2022-11-20T06:39:03;42.20;;;21.90;;
2031;SDS011;27625;50.422;7.944;2022-11-20T06:41:30;43.90;;;22.90;;
2031;SDS011;27625;50.422;7.944;2022-11-20T06:43:57;41.70;;;22.10;;
2031;SDS011;27625;50.422;7.944;2022-11-20T06:46:24;41.93;;;21.60;;
2031;SDS011;27625;50.422;7.944;2022-11-20T06:48:51;43.40;;;22.73;;
2031;SDS011;27625;50.422;7.944;2022-11-20T06:51:18;43.30;;;22.60;;
2031;SDS011;27625;50.422;7.944;2022-11-20T06:53:46;38.23;;;21.40;;
2031;SDS011;27625;50.422;7.944;2022-11-20T06:56:13;41.30;;;21.70;;
2031;SDS011;27625;50.422;7.944;2022-11-20T06:58:40;43.43;;;22.40;;
2031;SDS011;27625;50.422;7.944;2022-11-20T07:01:08;41.07;;;23.10;;
2031;SDS011;27625;50.422;7.944;2022-11-20T07:03:38;41.13;;;21.23;;
2031;SDS011;27625;50.422;7.944;2022-11-20T07:06:05;37.00;;;19.93;;
2031;SDS011;27625;50.422;7.944;2022-11-20T07:08:33;45.07;;;23.23;;
2031;SDS011;27625;50.422;7.944;2022-11-20T07:11:01;42.17;;;22.23;;
2031;SDS011;27625;50.422;7.944;2022-11-20T07:13:32;38.10;;;21.40;;
2031;SDS011;27625;50.422;7.944;2022-11-20T07:15:59;41.40;;;21.77;;
2031;SDS011;27625;50.422;7.944;2022-11-20T07:18:27;37.10;;;21.53;;
2031;SDS011;27625;50.422;7.944;2022-11-20T07:20:55;40.90;;;23.17;;
2031;SDS011;27625;50.422;7.944;2022-11-20T07:23:22;36.07;;;20.40;;
2031;SDS011;27625;50.422;7.944;2022-11-20T07:25:48;41.30;;;22.83;;
2031;SDS011;27625;50.422;7.944;2022-11-20T07:28:15;36.93;;;20.30;;
2031;SDS011;27625;50.422;7.944;2022-11-20T07:30:42;36.80;;;20.10;;
2031;SDS011;27625;50.422;7.944;2022-11-20T07:33:08;37.70;;;20.27;;
2031;SDS011;27625;50.422;7.944;2022-11-20T07:35:35;40.57;;;21.43;;
2031;SDS011;27625;50.422;7.944;2022-11-20T07:38:04;37.97;;;20.10;;
2031;SDS011;27625;50.422;7.944;2022-11-20T07:40:30;41.57;;;22.67;;
2031;SDS011;27625;50.422;7.944;2022-11-20T07:42:57;41.17;;;21.50;;
2031;SDS011;27625;50.422;7.944;2022-11-20T07:45:24;42.87;;;23.20;;
2031;SDS011;27625;50.422;7.944;2022-11-20T07:47:51;42.70;;;21.63;;
2031;SDS011;27625;50.422;7.944;2022-11-20T07:50:17;43.83;;;24.10;;
2031;SDS011;27625;50.422;7.944;2022-11-20T07:52:44;41.73;;;23.30;;
2031;SDS011;27625;50.422;7.944;2022-11-20T07:55:12;42.90;;;21.13;;
2031;SDS011;27625;50.422;7.944;2022-11-20T07:57:39;41.80;;;21.70;;
2031;SDS011;27625;50.422;7.944;2022-11-20T08:00:06;43.33;;;22.43;;
2031;SDS011;27625;50.422;7.944;2022-11-20T08:02:36;43.70;;;22.00;;
2031;SDS011;27625;50.422;7.944;2022-11-20T08:05:03;43.63;;;22.00;;
2031;SDS011;27625;50.422;7.944;2022-11-20T08:07:34;46.70;;;22.10;;
2031;SDS011;27625;50.422;7.944;2022-11-20T08:10:02;48.43;;;24.70;;
2031;SDS011;27625;50.422;7.944;2022-11-20T08:12:30;45.50;;;23.67;;
2031;SDS011;27625;50.422;7.944;2022-11-20T08:15:15;46.83;;;23.70;;
2031;SDS011;27625;50.422;7.944;2022-11-20T08:17:41;53.03;;;24.80;;
2031;SDS011;27625;50.422;7.944;2022-11-20T08:20:08;56.33;;;25.27;;
2031;SDS011;27625;50.422;7.944;2022-11-20T08:22:35;48.07;;;24.27;;
2031;SDS011;27625;50.422;7.944;2022-11-20T08:25:03;49.60;;;25.57;;
2031;SDS011;27625;50.422;7.944;2022-11-20T08:27:32;46.60;;;24.20;;
2031;SDS011;27625;50.422;7.944;2022-11-20T08:29:58;45.50;;;25.37;;
2031;SDS011;27625;50.422;7.944;2022-11-20T08:32:25;49.03;;;24.43;;
2031;SDS011;27625;50.422;7.944;2022-11-20T08:34:52;45.73;;;24.70;;
2031;SDS011;27625;50.422;7.944;2022-11-20T08:37:19;47.00;;;23.70;;
2031;SDS011;27625;50.422;7.944;2022-11-20T08:39:45;47.03;;;24.73;;
2031;SDS011;27625;50.422;7.944;2022-11-20T08:42:12;48.33;;;22.60;;
2031;SDS011;27625;50.422;7.944;2022-11-20T08:44:40;46.77;;;23.10;;
2031;SDS011;27625;50.422;7.944;2022-11-20T08:47:08;47.47;;;24.90;;
2031;SDS011;27625;50.422;7.944;2022-11-20T08:49:34;52.23;;;25.77;;
2031;SDS011;27625;50.422;7.944;2022-11-20T08:52:01;52.43;;;23.77;;
2031;SDS011;27625;50.422;7.944;2022-11-20T08:54:27;50.27;;;24.10;;
2031;SDS011;27625;50.422;7.944;2022-11-20T08:56:54;46.30;;;25.93;;
2031;SDS011;27625;50.422;7.944;2022-11-20T08:59:21;49.00;;;25.00;;
2031;SDS011;27625;50.422;7.944;2022-11-20T09:01:49;45.73;;;24.50;;
2031;SDS011;27625;50.422;7.944;2022-11-20T09:04:16;57.80;;;27.73;;
2031;SDS011;27625;50.422;7.944;2022-11-20T09:06:42;48.17;;;26.27;;
2031;SDS011;27625;50.422;7.944;2022-11-20T09:09:09;56.63;;;28.70;;
2031;SDS011;27625;50.422;7.944;2022-11-20T09:11:36;48.63;;;26.73;;
2031;SDS011;27625;50.422;7.944;2022-11-20T09:14:02;45.50;;;23.53;;
2031;SDS011;27625;50.422;7.944;2022-11-20T09:16:29;43.87;;;21.57;;
2031;SDS011;27625;50.422;7.944;2022-11-20T09:18:57;41.67;;;20.20;;
2031;SDS011;27625;50.422;7.944;2022-11-20T09:21:24;36.67;;;20.03;;
2031;SDS011;27625;50.422;7.944;2022-11-20T09:23:51;41.30;;;22.13;;
2031;SDS011;27625;50.422;7.944;2022-11-20T09:26:17;42.83;;;22.47;;
2031;SDS011;27625;50.422;7.944;2022-11-20T09:28:44;39.80;;;22.23;;
2031;SDS011;27625;50.422;7.944;2022-11-20T09:31:14;38.50;;;21.33;;
2031;SDS011;27625;50.422;7.944;2022-11-20T09:33:46;44.70;;;27.40;;
2031;SDS011;27625;50.422;7.944;2022-11-20T09:36:14;33.30;;;19.13;;
2031;SDS011;27625;50.422;7.944;2022-11-20T09:38:42;37.80;;;22.60;;
2031;SDS011;27625;50.422;7.944;2022-11-20T09:41:10;35.20;;;18.00;;
2031;SDS011;27625;50.422;7.944;2022-11-20T09:43:49;33.37;;;18.30;;
2031;SDS011;27625;50.422;7.944;2022-11-20T09:46:21;30.00;;;16.37;;
2031;SDS011;27625;50.422;7.944;2022-11-20T09:48:55;36.33;;;18.77;;
2031;SDS011;27625;50.422;7.944;2022-11-20T09:51:33;33.27;;;17.70;;
2031;SDS011;27625;50.422;7.944;2022-11-20T09:54:15;36.60;;;18.97;;
2031;SDS011;27625;50.422;7.944;2022-11-20T09:56:44;51.57;;;24.80;;
2031;SDS011;27625;50.422;7.944;2022-11-20T09:59:17;41.17;;;21.97;;
2031;SDS011;27625;50.422;7.944;2022-11-20T10:01:53;45.23;;;23.63;;
2031;SDS011;27625;50.422;7.944;2022-11-20T10:04:20;38.23;;;19.40;;
2031;SDS011;27625;50.422;7.944;2022-11-20T10:06:50;38.97;;;21.87;;
2031;SDS011;27625;50.422;7.944;2022-11-20T10:09:22;35.70;;;22.80;;
2031;SDS011;27625;50.422;7.944;2022-11-20T10:11:56;42.70;;;23.27;;
2031;SDS011;27625;50.422;7.944;2022-11-20T10:14:34;43.70;;;21.00;;
2031;SDS011;27625;50.422;7.944;2022-11-20T10:17:10;35.77;;;19.70;;
2031;SDS011;27625;50.422;7.944;2022-11-20T10:19:47;38.93;;;21.80;;
2031;SDS011;27625;50.422;7.944;2022-11-20T10:22:28;39.50;;;21.80;;
2031;SDS011;27625;50.422;7.944;2022-11-20T10:25:03;39.67;;;24.80;;
2031;SDS011;27625;50.422;7.944;2022-11-20T10:27:39;41.60;;;23.23;;
2031;SDS011;27625;50.422;7.944;2022-11-20T10:30:12;36.33;;;20.50;;
2031;SDS011;27625;50.422;7.944;2022-11-20T10:32:41;34.93;;;20.67;;
2031;SDS011;27625;50.422;7.944;2022-11-20T10:35:16;37.33;;;19.90;;
2031;SDS011;27625;50.422;7.944;2022-11-20T10:37:49;41.03;;;23.27;;
2031;SDS011;27625;50.422;7.944;2022-11-20T10:40:19;39.03;;;21.50;;
2031;SDS011;27625;50.422;7.944;2022-11-20T10:42:49;38.33;;;21.27;;
2031;SDS011;27625;50.422;7.944;2022-11-20T10:45:22;37.90;;;23.60;;
2031;SDS011;27625;50.422;7.944;2022-11-20T10:48:07;37.87;;;23.60;;
2031;SDS011;27625;50.422;7.944;2022-11-20T10:50:37;35.27;;;23.23;;
2031;SDS011;27625;50.422;7.944;2022-11-20T10:53:08;40.77;;;25.70;;
2031;SDS011;27625;50.422;7.944;2022-11-20T10:55:43;40.73;;;23.17;;
2031;SDS011;27625;50.422;7.944;2022-11-20T10:58:13;57.90;;;38.47;;
2031;SDS011;27625;50.422;7.944;2022-11-20T11:00:42;36.90;;;20.97;;
2031;SDS011;27625;50.422;7.944;2022-11-20T11:03:14;37.23;;;24.67;;
2031;SDS011;27625;50.422;7.944;2022-11-20T11:05:48;38.80;;;24.67;;
2031;SDS011;27625;50.422;7.944;2022-11-20T11:08:19;43.47;;;28.20;;
2031;SDS011;27625;50.422;7.944;2022-11-20T11:10:46;48.87;;;30.07;;
2031;SDS011;27625;50.422;7.944;2022-11-20T11:13:21;37.60;;;23.40;;
2031;SDS011;27625;50.422;7.944;2022-11-20T11:15:50;38.47;;;21.57;;
2031;SDS011;27625;50.422;7.944;2022-11-20T11:18:25;31.43;;;19.40;;
2031;SDS011;27625;50.422;7.944;2022-11-20T11:20:53;29.80;;;17.23;;
2031;SDS011;27625;50.422;7.944;2022-11-20T11:23:32;27.83;;;16.70;;
2031;SDS011;27625;50.422;7.944;2022-11-20T11:26:00;26.90;;;17.10;;
2031;SDS011;27625;50.422;7.944;2022-11-20T11:28:28;25.73;;;16.33;;
2031;SDS011;27625;50.422;7.944;2022-11-20T11:30:55;28.47;;;16.90;;
2031;SDS011;27625;50.422;7.944;2022-11-20T11:33:23;24.93;;;17.40;;
2031;SDS011;27625;50.422;7.944;2022-11-20T11:35:51;25.77;;;16.80;;
2031;SDS011;27625;50.422;7.944;2022-11-20T11:38:21;28.73;;;17.30;;
2031;SDS011;27625;50.422;7.944;2022-11-20T11:40:52;26.20;;;16.60;;
2031;SDS011;27625;50.422;7.944;2022-11-20T11:43:20;24.87;;;14.97;;
2031;SDS011;27625;50.422;7.944;2022-11-20T11:46:09;79.63;;;50.13;;
2031;SDS011;27625;50.422;7.944;2022-11-20T11:48:54;29.37;;;17.90;;
2031;SDS011;27625;50.422;7.944;2022-11-20T11:51:22;25.50;;;15.00;;
2031;SDS011;27625;50.422;7.944;2022-11-20T11:53:48;29.90;;;17.30;;
2031;SDS011;27625;50.422;7.944;2022-11-20T11:56:17;26.33;;;17.07;;
2031;SDS011;27625;50.422;7.944;2022-11-20T11:58:45;35.10;;;21.20;;
2031;SDS011;27625;50.422;7.944;2022-11-20T12:01:19;27.73;;;18.20;;
2031;SDS011;27625;50.422;7.944;2022-11-20T12:03:52;33.37;;;20.97;;
2031;SDS011;27625;50.422;7.944;2022-11-20T12:06:24;31.27;;;19.87;;
2031;SDS011;27625;50.422;7.944;2022-11-20T12:08:52;25.27;;;17.17;;
2031;SDS011;27625;50.422;7.944;2022-11-20T12:11:24;27.10;;;16.80;;
2031;SDS011;27625;50.422;7.944;2022-11-20T12:13:58;23.10;;;15.13;;
2031;SDS011;27625;50.422;7.944;2022-11-20T12:16:30;22.17;;;14.40;;
2031;SDS011;27625;50.422;7.944;2022-11-20T12:18:59;24.53;;;16.00;;
2031;SDS011;27625;50.422;7.944;2022-11-20T12:21:28;27.10;;;17.37;;
2031;SDS011;27625;50.422;7.944;2022-11-20T12:24:02;21.17;;;14.50;;
2031;SDS011;27625;50.422;7.944;2022-11-20T12:26:42;22.80;;;14.93;;
2031;SDS011;27625;50.422;7.944;2022-11-20T12:29:16;21.37;;;14.07;;
2031;SDS011;27625;50.422;7.944;2022-11-20T12:31:52;18.17;;;12.63;;
2031;SDS011;27625;50.422;7.944;2022-11-20T12:34:41;19.00;;;12.50;;
2031;SDS011;27625;50.422;7.944;2022-11-20T12:37:13;32.20;;;18.07;;
2031;SDS011;27625;50.422;7.944;2022-11-20T12:39:48;26.03;;;16.47;;
2031;SDS011;27625;50.422;7.944;2022-11-20T12:42:23;31.17;;;18.17;;
2031;SDS011;27625;50.422;7.944;2022-11-20T12:45:20;28.70;;;18.37;;
2031;SDS011;27625;50.422;7.944;2022-11-20T12:48:11;31.83;;;19.10;;
2031;SDS011;27625;50.422;7.944;2022-11-20T12:50:49;30.03;;;18.60;;
2031;SDS011;27625;50.422;7.944;2022-11-20T12:53:22;34.23;;;18.93;;
2031;SDS011;27625;50.422;7.944;2022-11-20T12:55:55;29.33;;;17.40;;
2031;SDS011;27625;50.422;7.944;2022-11-20T12:58:31;29.67;;;18.87;;
2031;SDS011;27625;50.422;7.944;2022-11-20T13:01:03;31.73;;;19.30;;
2031;SDS011;27625;50.422;7.944;2022-11-20T13:04:02;32.20;;;17.10;;
2031;SDS011;27625;50.422;7.944;2022-11-20T13:06:34;33.30;;;22.03;;
2031;SDS011;27625;50.422;7.944;2022-11-20T13:09:01;30.13;;;18.07;;
2031;SDS011;27625;50.422;7.944;2022-11-20T13:11:32;29.77;;;17.57;;
2031;SDS011;27625;50.422;7.944;2022-11-20T13:14:16;32.90;;;19.80;;
2031;SDS011;27625;50.422;7.944;2022-11-20T13:16:51;32.33;;;18.73;;
2031;SDS011;27625;50.422;7.944;2022-11-20T13:19:20;35.80;;;18.20;;
2031;SDS011;27625;50.422;7.944;2022-11-20T13:21:47;30.07;;;19.17;;
2031;SDS011;27625;50.422;7.944;2022-11-20T13:24:25;35.70;;;20.20;;
2031;SDS011;27625;50.422;7.944;2022-11-20T13:27:02;29.70;;;19.97;;
2031;SDS011;27625;50.422;7.944;2022-11-20T13:29:32;32.10;;;19.97;;
2031;SDS011;27625;50.422;7.944;2022-11-20T13:32:03;34.10;;;20.30;;
2031;SDS011;27625;50.422;7.944;2022-11-20T13:34:31;32.00;;;19.60;;
2031;SDS011;27625;50.422;7.944;2022-11-20T13:36:59;36.67;;;18.60;;
2031;SDS011;27625;50.422;7.944;2022-11-20T13:39:29;32.30;;;19.13;;
2031;SDS011;27625;50.422;7.944;2022-11-20T13:41:57;33.50;;;19.23;;
2031;SDS011;27625;50.422;7.944;2022-11-20T13:44:25;36.20;;;20.80;;
2031;SDS011;27625;50.422;7.944;2022-11-20T13:46:56;38.30;;;22.73;;
2031;SDS011;27625;50.422;7.944;2022-11-20T13:49:25;40.40;;;19.87;;
2031;SDS011;27625;50.422;7.944;2022-11-20T13:51:55;32.97;;;19.87;;
2031;SDS011;27625;50.422;7.944;2022-11-20T13:54:34;29.10;;;18.40;;
2031;SDS011;27625;50.422;7.944;2022-11-20T13:57:17;29.63;;;17.93;;
2031;SDS011;27625;50.422;7.944;2022-11-20T13:59:57;31.37;;;19.50;;
2031;SDS011;27625;50.422;7.944;2022-11-20T14:02:26;30.53;;;18.57;;
2031;SDS011;27625;50.422;7.944;2022-11-20T14:04:54;30.63;;;19.30;;
2031;SDS011;27625;50.422;7.944;2022-11-20T14:07:24;32.20;;;17.60;;
2031;SDS011;27625;50.422;7.944;2022-11-20T14:09:52;32.93;;;19.90;;
2031;SDS011;27625;50.422;7.944;2022-11-20T14:12:23;41.80;;;22.70;;
2031;SDS011;27625;50.422;7.944;2022-11-20T14:14:54;36.10;;;20.43;;
2031;SDS011;27625;50.422;7.944;2022-11-20T14:17:22;42.90;;;22.53;;
2031;SDS011;27625;50.422;7.944;2022-11-20T14:19:52;33.83;;;20.20;;
2031;SDS011;27625;50.422;7.944;2022-11-20T14:22:19;35.00;;;21.90;;
2031;SDS011;27625;50.422;7.944;2022-11-20T14:24:47;32.50;;;19.27;;
2031;SDS011;27625;50.422;7.944;2022-11-20T14:27:15;34.43;;;19.73;;
2031;SDS011;27625;50.422;7.944;2022-11-20T14:29:43;32.90;;;19.73;;
2031;SDS011;27625;50.422;7.944;2022-11-20T14:32:11;36.60;;;20.10;;
2031;SDS011;27625;50.422;7.944;2022-11-20T14:34:38;35.40;;;18.93;;
2031;SDS011;27625;50.422;7.944;2022-11-20T14:37:10;32.40;;;19.20;;
2031;SDS011;27625;50.422;7.944;2022-11-20T14:39:40;33.97;;;20.80;;
2031;SDS011;27625;50.422;7.944;2022-11-20T14:42:14;38.03;;;18.97;;
2031;SDS011;27625;50.422;7.944;2022-11-20T14:44:41;33.10;;;20.00;;
2031;SDS011;27625;50.422;7.944;2022-11-20T14:47:09;34.87;;;19.63;;
2031;SDS011;27625;50.422;7.944;2022-11-20T14:49:38;36.40;;;19.60;;